You are not logged in, Click here to log in
泰德·史蒂文斯安克拉治國際機場ANC / PANC 美國阿拉斯加安克拉治市中心西南6公里
ICAO: PANC Country: 美國阿拉斯加安克拉治市中心西南6公里
Latitude: 61.1744 Longitude: -149.996
Total Arrivals: 21 Total Departures: 21
Latest Arrival: CX3272 (VHHH-PANC)KE. CHIH-HAO Latest Departure: CX3272 (PANC-KLCK)KE. CHIH-HAO
Scenery:
METAR : PANC 131053Z 03006KT 10SM BKN080 00/M04 A2927 RMK AO2 SLP912 T00001044

泰德·史蒂文斯安克拉治國際機場ANC

You are accessing this site from IP address 100.26.176.182. Virtual Airline. CMS by phpVMS.Website designed by Zumeweb and edited by Theo Bearman.
There is 0 User(s) Online: | and 3 Guest(s) Online.
All information on this site is for fight simulation purposes only. This site is for flight logging for pilots of Virtual Airline&模擬飛行論壇 FlySim only.